sensor_id;sensor_type;location;lat;lon;timestamp;temperature;humidity
53695;DHT22;39588;51.124;7.190;2022-10-24T00:00:46;14.20;99.90
53695;DHT22;39588;51.124;7.190;2022-10-24T00:03:14;14.10;99.90
53695;DHT22;39588;51.124;7.190;2022-10-24T00:05:41;14.10;99.90
53695;DHT22;39588;51.124;7.190;2022-10-24T00:10:33;14.10;99.90
53695;DHT22;39588;51.124;7.190;2022-10-24T00:13:00;14.10;99.90
53695;DHT22;39588;51.124;7.190;2022-10-24T00:15:26;14.10;99.90
53695;DHT22;39588;51.124;7.190;2022-10-24T00:27:36;14.10;99.90
53695;DHT22;39588;51.124;7.190;2022-10-24T00:30:03;14.10;99.90
53695;DHT22;39588;51.124;7.190;2022-10-24T00:32:29;14.10;99.90
53695;DHT22;39588;51.124;7.190;2022-10-24T00:34:55;14.10;99.90
53695;DHT22;39588;51.124;7.190;2022-10-24T00:37:20;14.10;99.90
53695;DHT22;39588;51.124;7.190;2022-10-24T00:42:12;14.10;99.90
53695;DHT22;39588;51.124;7.190;2022-10-24T00:44:40;14.10;99.90
53695;DHT22;39588;51.124;7.190;2022-10-24T00:47:07;14.10;99.90
53695;DHT22;39588;51.124;7.190;2022-10-24T00:49:45;14.10;99.90
53695;DHT22;39588;51.124;7.190;2022-10-24T00:52:15;14.10;99.90
53695;DHT22;39588;51.124;7.190;2022-10-24T00:54:41;14.10;99.90
53695;DHT22;39588;51.124;7.190;2022-10-24T00:57:29;14.10;99.90
53695;DHT22;39588;51.124;7.190;2022-10-24T00:59:57;14.10;99.90
53695;DHT22;39588;51.124;7.190;2022-10-24T01:02:25;14.10;99.90
53695;DHT22;39588;51.124;7.190;2022-10-24T01:10:40;14.10;99.90
53695;DHT22;39588;51.124;7.190;2022-10-24T01:13:21;14.10;99.90
53695;DHT22;39588;51.124;7.190;2022-10-24T01:16:11;14.10;99.90
53695;DHT22;39588;51.124;7.190;2022-10-24T01:18:51;14.10;99.90
53695;DHT22;39588;51.124;7.190;2022-10-24T01:31:56;14.00;99.90
53695;DHT22;39588;51.124;7.190;2022-10-24T01:37:08;14.00;99.90
53695;DHT22;39588;51.124;7.190;2022-10-24T01:39:40;14.00;99.90
53695;DHT22;39588;51.124;7.190;2022-10-24T01:42:08;14.00;99.90
53695;DHT22;39588;51.124;7.190;2022-10-24T01:44:39;14.00;99.90
53695;DHT22;39588;51.124;7.190;2022-10-24T01:47:28;14.00;99.90
53695;DHT22;39588;51.124;7.190;2022-10-24T01:49:58;14.00;99.90
53695;DHT22;39588;51.124;7.190;2022-10-24T01:52:29;14.10;99.90
53695;DHT22;39588;51.124;7.190;2022-10-24T01:54:55;14.00;99.90
53695;DHT22;39588;51.124;7.190;2022-10-24T01:57:28;14.00;99.90
53695;DHT22;39588;51.124;7.190;2022-10-24T01:59:54;14.00;99.90
53695;DHT22;39588;51.124;7.190;2022-10-24T02:02:40;14.00;99.90
53695;DHT22;39588;51.124;7.190;2022-10-24T02:05:29;14.00;99.90
53695;DHT22;39588;51.124;7.190;2022-10-24T02:08:02;14.10;99.90
53695;DHT22;39588;51.124;7.190;2022-10-24T02:10:33;14.10;99.90
53695;DHT22;39588;51.124;7.190;2022-10-24T02:13:04;14.10;99.90
53695;DHT22;39588;51.124;7.190;2022-10-24T02:15:35;14.10;99.90
53695;DHT22;39588;51.124;7.190;2022-10-24T02:18:03;14.10;99.90
53695;DHT22;39588;51.124;7.190;2022-10-24T02:20:36;14.10;99.90
53695;DHT22;39588;51.124;7.190;2022-10-24T02:23:17;14.10;99.90
53695;DHT22;39588;51.124;7.190;2022-10-24T02:25:48;14.10;99.90
53695;DHT22;39588;51.124;7.190;2022-10-24T02:28:19;14.10;99.90
53695;DHT22;39588;51.124;7.190;2022-10-24T02:31:07;14.10;99.90
53695;DHT22;39588;51.124;7.190;2022-10-24T02:33:35;14.10;99.90
53695;DHT22;39588;51.124;7.190;2022-10-24T02:36:03;14.10;99.90
53695;DHT22;39588;51.124;7.190;2022-10-24T02:38:32;14.10;99.90
53695;DHT22;39588;51.124;7.190;2022-10-24T02:41:02;14.20;99.90
53695;DHT22;39588;51.124;7.190;2022-10-24T02:43:29;14.20;99.90
53695;DHT22;39588;51.124;7.190;2022-10-24T02:45:57;14.20;99.90
53695;DHT22;39588;51.124;7.190;2022-10-24T02:48:31;14.20;99.90
53695;DHT22;39588;51.124;7.190;2022-10-24T02:50:59;14.20;99.90
53695;DHT22;39588;51.124;7.190;2022-10-24T02:53:25;14.20;99.90
53695;DHT22;39588;51.124;7.190;2022-10-24T02:55:52;14.20;99.90
53695;DHT22;39588;51.124;7.190;2022-10-24T02:58:18;14.20;99.90
53695;DHT22;39588;51.124;7.190;2022-10-24T03:05:35;14.30;99.90
53695;DHT22;39588;51.124;7.190;2022-10-24T03:27:32;14.30;99.90
53695;DHT22;39588;51.124;7.190;2022-10-24T03:29:59;14.30;99.90
53695;DHT22;39588;51.124;7.190;2022-10-24T03:32:25;14.30;99.90
53695;DHT22;39588;51.124;7.190;2022-10-24T03:34:51;14.30;99.90
53695;DHT22;39588;51.124;7.190;2022-10-24T03:37:17;14.20;99.90
53695;DHT22;39588;51.124;7.190;2022-10-24T03:42:09;14.20;99.90
53695;DHT22;39588;51.124;7.190;2022-10-24T03:44:34;14.20;99.90
53695;DHT22;39588;51.124;7.190;2022-10-24T03:47:00;14.20;99.90
53695;DHT22;39588;51.124;7.190;2022-10-24T03:56:44;14.30;99.90
53695;DHT22;39588;51.124;7.190;2022-10-24T03:59:12;14.30;99.90
53695;DHT22;39588;51.124;7.190;2022-10-24T04:01:38;14.30;99.90
53695;DHT22;39588;51.124;7.190;2022-10-24T04:04:03;14.20;99.90
53695;DHT22;39588;51.124;7.190;2022-10-24T04:06:29;14.30;99.90
53695;DHT22;39588;51.124;7.190;2022-10-24T04:11:22;14.20;99.90
53695;DHT22;39588;51.124;7.190;2022-10-24T04:13:48;14.20;99.90
53695;DHT22;39588;51.124;7.190;2022-10-24T04:16:13;14.30;99.90
53695;DHT22;39588;51.124;7.190;2022-10-24T04:26:00;14.20;99.90
53695;DHT22;39588;51.124;7.190;2022-10-24T04:28:25;14.20;99.90
53695;DHT22;39588;51.124;7.190;2022-10-24T04:30:55;14.20;99.90
53695;DHT22;39588;51.124;7.190;2022-10-24T04:35:48;14.20;99.90
53695;DHT22;39588;51.124;7.190;2022-10-24T04:38:15;14.20;99.90
53695;DHT22;39588;51.124;7.190;2022-10-24T04:40:44;14.10;99.90
53695;DHT22;39588;51.124;7.190;2022-10-24T04:43:10;14.10;99.90
53695;DHT22;39588;51.124;7.190;2022-10-24T04:55:20;14.20;99.90
53695;DHT22;39588;51.124;7.190;2022-10-24T05:00:12;14.20;99.90
53695;DHT22;39588;51.124;7.190;2022-10-24T05:02:37;14.20;99.90
53695;DHT22;39588;51.124;7.190;2022-10-24T05:05:04;14.20;99.90
53695;DHT22;39588;51.124;7.190;2022-10-24T05:07:29;14.10;99.90
53695;DHT22;39588;51.124;7.190;2022-10-24T05:12:21;14.20;99.90
53695;DHT22;39588;51.124;7.190;2022-10-24T05:17:13;14.10;99.90
53695;DHT22;39588;51.124;7.190;2022-10-24T05:19:39;14.10;99.90
53695;DHT22;39588;51.124;7.190;2022-10-24T05:31:50;14.20;99.90
53695;DHT22;39588;51.124;7.190;2022-10-24T05:34:15;14.20;99.90
53695;DHT22;39588;51.124;7.190;2022-10-24T05:46:25;14.10;99.90
53695;DHT22;39588;51.124;7.190;2022-10-24T05:48:51;14.10;99.90
53695;DHT22;39588;51.124;7.190;2022-10-24T05:51:17;14.10;99.90
53695;DHT22;39588;51.124;7.190;2022-10-24T05:53:42;14.20;99.90
53695;DHT22;39588;51.124;7.190;2022-10-24T05:58:34;14.10;99.90
53695;DHT22;39588;51.124;7.190;2022-10-24T06:08:18;14.10;99.90
53695;DHT22;39588;51.124;7.190;2022-10-24T06:10:48;14.10;99.90
53695;DHT22;39588;51.124;7.190;2022-10-24T06:13:15;14.10;99.90
53695;DHT22;39588;51.124;7.190;2022-10-24T06:15:41;14.10;99.90
53695;DHT22;39588;51.124;7.190;2022-10-24T06:20:33;14.10;99.90
53695;DHT22;39588;51.124;7.190;2022-10-24T06:25:25;14.20;99.90
53695;DHT22;39588;51.124;7.190;2022-10-24T06:37:38;14.20;99.90
53695;DHT22;39588;51.124;7.190;2022-10-24T06:40:04;14.30;99.90
53695;DHT22;39588;51.124;7.190;2022-10-24T06:42:29;14.30;99.90
53695;DHT22;39588;51.124;7.190;2022-10-24T06:52:14;14.40;99.90
53695;DHT22;39588;51.124;7.190;2022-10-24T06:54:39;14.40;99.90
53695;DHT22;39588;51.124;7.190;2022-10-24T06:59:32;14.50;99.90
53695;DHT22;39588;51.124;7.190;2022-10-24T07:04:24;14.50;99.90
53695;DHT22;39588;51.124;7.190;2022-10-24T07:06:50;14.60;99.90
53695;DHT22;39588;51.124;7.190;2022-10-24T07:11:43;14.60;99.90
53695;DHT22;39588;51.124;7.190;2022-10-24T07:14:09;14.60;99.90
53695;DHT22;39588;51.124;7.190;2022-10-24T07:16:36;14.70;99.90
53695;DHT22;39588;51.124;7.190;2022-10-24T07:19:02;14.80;99.80
53695;DHT22;39588;51.124;7.190;2022-10-24T07:21:30;14.90;99.80
53695;DHT22;39588;51.124;7.190;2022-10-24T07:23:56;14.90;99.70
53695;DHT22;39588;51.124;7.190;2022-10-24T07:26:23;15.00;99.70
53695;DHT22;39588;51.124;7.190;2022-10-24T07:28:50;15.10;99.60
53695;DHT22;39588;51.124;7.190;2022-10-24T07:31:23;15.10;99.60
53695;DHT22;39588;51.124;7.190;2022-10-24T07:33:51;15.10;99.40
53695;DHT22;39588;51.124;7.190;2022-10-24T07:36:18;15.20;99.40
53695;DHT22;39588;51.124;7.190;2022-10-24T07:38:48;15.20;99.50
53695;DHT22;39588;51.124;7.190;2022-10-24T07:41:14;15.20;99.40
53695;DHT22;39588;51.124;7.190;2022-10-24T07:46:08;15.30;99.40
53695;DHT22;39588;51.124;7.190;2022-10-24T07:48:34;15.40;99.30
53695;DHT22;39588;51.124;7.190;2022-10-24T07:51:04;15.40;99.30
53695;DHT22;39588;51.124;7.190;2022-10-24T07:53:30;15.50;99.20
53695;DHT22;39588;51.124;7.190;2022-10-24T07:55:57;15.60;99.10
53695;DHT22;39588;51.124;7.190;2022-10-24T07:58:24;15.60;99.10
53695;DHT22;39588;51.124;7.190;2022-10-24T08:17:55;15.40;99.00
53695;DHT22;39588;51.124;7.190;2022-10-24T08:20:21;15.40;99.10
53695;DHT22;39588;51.124;7.190;2022-10-24T08:22:48;15.40;99.00
53695;DHT22;39588;51.124;7.190;2022-10-24T08:27:40;15.70;99.10
53695;DHT22;39588;51.124;7.190;2022-10-24T08:30:07;16.00;99.00
53695;DHT22;39588;51.124;7.190;2022-10-24T08:32:34;16.20;98.90
53695;DHT22;39588;51.124;7.190;2022-10-24T08:35:00;16.30;98.60
53695;DHT22;39588;51.124;7.190;2022-10-24T08:37:26;16.30;98.40
53695;DHT22;39588;51.124;7.190;2022-10-24T08:39:52;16.30;98.30
53695;DHT22;39588;51.124;7.190;2022-10-24T08:42:22;16.30;98.30
53695;DHT22;39588;51.124;7.190;2022-10-24T08:44:49;16.40;98.60
53695;DHT22;39588;51.124;7.190;2022-10-24T08:50:22;16.40;98.30
53695;DHT22;39588;51.124;7.190;2022-10-24T08:53:04;16.40;98.30
53695;DHT22;39588;51.124;7.190;2022-10-24T08:58:03;16.30;98.40
53695;DHT22;39588;51.124;7.190;2022-10-24T09:00:39;16.30;98.40
53695;DHT22;39588;51.124;7.190;2022-10-24T09:06:04;16.20;98.20
53695;DHT22;39588;51.124;7.190;2022-10-24T09:08:54;16.30;98.40
53695;DHT22;39588;51.124;7.190;2022-10-24T09:11:39;16.40;98.40
53695;DHT22;39588;51.124;7.190;2022-10-24T09:14:13;16.40;98.20
53695;DHT22;39588;51.124;7.190;2022-10-24T09:16:41;16.50;98.20
53695;DHT22;39588;51.124;7.190;2022-10-24T09:19:13;16.60;98.30
53695;DHT22;39588;51.124;7.190;2022-10-24T09:21:40;16.70;98.10
53695;DHT22;39588;51.124;7.190;2022-10-24T09:31:39;16.60;97.80
53695;DHT22;39588;51.124;7.190;2022-10-24T09:34:05;16.60;98.10
53695;DHT22;39588;51.124;7.190;2022-10-24T09:36:31;16.70;98.00
53695;DHT22;39588;51.124;7.190;2022-10-24T09:39:23;16.60;97.80
53695;DHT22;39588;51.124;7.190;2022-10-24T09:41:49;16.60;98.30
53695;DHT22;39588;51.124;7.190;2022-10-24T09:44:38;16.60;98.10
53695;DHT22;39588;51.124;7.190;2022-10-24T09:47:07;16.50;97.90
53695;DHT22;39588;51.124;7.190;2022-10-24T09:52:24;16.50;98.10
53695;DHT22;39588;51.124;7.190;2022-10-24T10:00:29;16.70;97.80
53695;DHT22;39588;51.124;7.190;2022-10-24T10:03:17;16.60;97.90
53695;DHT22;39588;51.124;7.190;2022-10-24T10:05:55;16.60;98.00
53695;DHT22;39588;51.124;7.190;2022-10-24T10:08:30;16.60;98.10
53695;DHT22;39588;51.124;7.190;2022-10-24T10:13:30;16.60;98.10
53695;DHT22;39588;51.124;7.190;2022-10-24T10:16:03;16.60;98.20
53695;DHT22;39588;51.124;7.190;2022-10-24T10:21:12;16.80;98.10
53695;DHT22;39588;51.124;7.190;2022-10-24T10:23:49;16.80;97.90
53695;DHT22;39588;51.124;7.190;2022-10-24T10:26:19;16.80;98.10
53695;DHT22;39588;51.124;7.190;2022-10-24T10:29:01;16.80;98.00
53695;DHT22;39588;51.124;7.190;2022-10-24T10:31:36;16.70;97.40
53695;DHT22;39588;51.124;7.190;2022-10-24T10:39:22;16.70;97.40
53695;DHT22;39588;51.124;7.190;2022-10-24T10:56:25;17.00;97.10
53695;DHT22;39588;51.124;7.190;2022-10-24T11:07:31;17.10;96.60
53695;DHT22;39588;51.124;7.190;2022-10-24T11:10:02;17.10;96.80
53695;DHT22;39588;51.124;7.190;2022-10-24T11:12:33;17.20;97.00
53695;DHT22;39588;51.124;7.190;2022-10-24T11:15:07;17.20;96.70
53695;DHT22;39588;51.124;7.190;2022-10-24T11:17:41;17.20;96.70
53695;DHT22;39588;51.124;7.190;2022-10-24T11:20:36;17.20;96.80
53695;DHT22;39588;51.124;7.190;2022-10-24T11:23:15;17.20;96.70
53695;DHT22;39588;51.124;7.190;2022-10-24T11:26:13;17.30;96.90
53695;DHT22;39588;51.124;7.190;2022-10-24T11:28:54;17.40;96.90
53695;DHT22;39588;51.124;7.190;2022-10-24T11:31:25;17.30;96.90
53695;DHT22;39588;51.124;7.190;2022-10-24T11:34:02;17.30;97.00
53695;DHT22;39588;51.124;7.190;2022-10-24T11:36:45;17.40;96.50
53695;DHT22;39588;51.124;7.190;2022-10-24T11:47:36;17.30;96.20
53695;DHT22;39588;51.124;7.190;2022-10-24T11:52:54;17.30;96.20
53695;DHT22;39588;51.124;7.190;2022-10-24T11:55:36;17.30;96.10
53695;DHT22;39588;51.124;7.190;2022-10-24T11:58:07;17.20;96.10
53695;DHT22;39588;51.124;7.190;2022-10-24T12:12:31;17.20;96.20
53695;DHT22;39588;51.124;7.190;2022-10-24T12:15:05;17.20;96.30
53695;DHT22;39588;51.124;7.190;2022-10-24T12:20:00;17.30;96.30
53695;DHT22;39588;51.124;7.190;2022-10-24T12:22:45;17.30;96.20
53695;DHT22;39588;51.124;7.190;2022-10-24T12:25:35;17.20;96.70
53695;DHT22;39588;51.124;7.190;2022-10-24T12:28:07;17.10;97.00
53695;DHT22;39588;51.124;7.190;2022-10-24T12:38:01;17.20;97.30
53695;DHT22;39588;51.124;7.190;2022-10-24T12:43:36;17.10;97.00
53695;DHT22;39588;51.124;7.190;2022-10-24T12:51:40;17.30;97.10
53695;DHT22;39588;51.124;7.190;2022-10-24T12:59:32;17.30;96.80
53695;DHT22;39588;51.124;7.190;2022-10-24T13:07:32;17.30;97.00
53695;DHT22;39588;51.124;7.190;2022-10-24T13:13:02;17.50;96.70
53695;DHT22;39588;51.124;7.190;2022-10-24T13:15:57;17.50;96.70
53695;DHT22;39588;51.124;7.190;2022-10-24T13:42:35;17.10;97.20
53695;DHT22;39588;51.124;7.190;2022-10-24T13:45:26;17.10;97.20
53695;DHT22;39588;51.124;7.190;2022-10-24T13:48:08;17.10;97.30
53695;DHT22;39588;51.124;7.190;2022-10-24T13:50:39;17.00;97.20
53695;DHT22;39588;51.124;7.190;2022-10-24T13:53:19;17.00;97.20
53695;DHT22;39588;51.124;7.190;2022-10-24T13:55:48;17.10;97.10
53695;DHT22;39588;51.124;7.190;2022-10-24T13:58:22;17.10;97.00
53695;DHT22;39588;51.124;7.190;2022-10-24T14:01:00;17.10;97.00
53695;DHT22;39588;51.124;7.190;2022-10-24T14:03:28;17.20;97.00
53695;DHT22;39588;51.124;7.190;2022-10-24T14:06:02;17.30;96.90
53695;DHT22;39588;51.124;7.190;2022-10-24T14:10:58;17.30;97.00
53695;DHT22;39588;51.124;7.190;2022-10-24T14:13:25;17.40;96.90
53695;DHT22;39588;51.124;7.190;2022-10-24T14:16:04;17.30;96.90
53695;DHT22;39588;51.124;7.190;2022-10-24T14:18:31;17.30;96.90
53695;DHT22;39588;51.124;7.190;2022-10-24T14:21:02;17.30;96.90
53695;DHT22;39588;51.124;7.190;2022-10-24T14:23:35;17.30;96.80
53695;DHT22;39588;51.124;7.190;2022-10-24T14:26:19;17.30;96.90
53695;DHT22;39588;51.124;7.190;2022-10-24T14:28:54;17.20;97.10
53695;DHT22;39588;51.124;7.190;2022-10-24T14:31:32;17.30;97.30
53695;DHT22;39588;51.124;7.190;2022-10-24T14:34:04;17.30;97.10
53695;DHT22;39588;51.124;7.190;2022-10-24T14:36:32;17.30;96.90
53695;DHT22;39588;51.124;7.190;2022-10-24T14:39:00;17.20;96.90
53695;DHT22;39588;51.124;7.190;2022-10-24T14:41:29;17.10;97.10
53695;DHT22;39588;51.124;7.190;2022-10-24T14:43:56;16.90;97.10
53695;DHT22;39588;51.124;7.190;2022-10-24T14:53:56;16.80;97.60
53695;DHT22;39588;51.124;7.190;2022-10-24T14:58:50;16.80;97.70
53695;DHT22;39588;51.124;7.190;2022-10-24T15:01:17;16.70;97.70
53695;DHT22;39588;51.124;7.190;2022-10-24T15:03:52;16.60;97.70
53695;DHT22;39588;51.124;7.190;2022-10-24T15:06:36;16.50;97.80
53695;DHT22;39588;51.124;7.190;2022-10-24T15:11:47;16.60;97.70
53695;DHT22;39588;51.124;7.190;2022-10-24T15:14:39;16.60;97.60
53695;DHT22;39588;51.124;7.190;2022-10-24T15:17:29;16.60;97.70
53695;DHT22;39588;51.124;7.190;2022-10-24T15:20:00;16.40;97.60
53695;DHT22;39588;51.124;7.190;2022-10-24T15:22:34;16.40;97.60
53695;DHT22;39588;51.124;7.190;2022-10-24T15:25:06;16.40;97.60
53695;DHT22;39588;51.124;7.190;2022-10-24T15:27:40;16.30;97.40
53695;DHT22;39588;51.124;7.190;2022-10-24T15:30:34;16.30;97.40
53695;DHT22;39588;51.124;7.190;2022-10-24T15:33:03;16.30;97.40
53695;DHT22;39588;51.124;7.190;2022-10-24T15:35:33;16.40;97.30
53695;DHT22;39588;51.124;7.190;2022-10-24T15:38:03;16.40;97.40
53695;DHT22;39588;51.124;7.190;2022-10-24T15:40:35;16.40;97.50
53695;DHT22;39588;51.124;7.190;2022-10-24T15:43:00;16.40;97.60
53695;DHT22;39588;51.124;7.190;2022-10-24T15:45:27;16.50;97.60
53695;DHT22;39588;51.124;7.190;2022-10-24T15:47:52;16.40;97.60
53695;DHT22;39588;51.124;7.190;2022-10-24T15:50:21;16.40;97.70
53695;DHT22;39588;51.124;7.190;2022-10-24T15:52:57;16.40;97.60
53695;DHT22;39588;51.124;7.190;2022-10-24T15:55:27;16.30;97.60
53695;DHT22;39588;51.124;7.190;2022-10-24T15:57:53;16.20;97.80
53695;DHT22;39588;51.124;7.190;2022-10-24T16:00:22;16.00;97.90
53695;DHT22;39588;51.124;7.190;2022-10-24T16:02:48;15.90;98.10
53695;DHT22;39588;51.124;7.190;2022-10-24T16:05:23;15.90;98.20
53695;DHT22;39588;51.124;7.190;2022-10-24T16:07:50;15.90;98.20
53695;DHT22;39588;51.124;7.190;2022-10-24T16:10:17;15.90;98.20
53695;DHT22;39588;51.124;7.190;2022-10-24T16:12:44;15.90;98.30
53695;DHT22;39588;51.124;7.190;2022-10-24T16:15:20;16.00;98.30
53695;DHT22;39588;51.124;7.190;2022-10-24T16:22:40;15.80;98.40
53695;DHT22;39588;51.124;7.190;2022-10-24T16:25:07;15.80;98.40
53695;DHT22;39588;51.124;7.190;2022-10-24T16:27:33;15.80;98.50
53695;DHT22;39588;51.124;7.190;2022-10-24T16:34:50;15.70;98.60
53695;DHT22;39588;51.124;7.190;2022-10-24T16:37:16;15.60;98.60
53695;DHT22;39588;51.124;7.190;2022-10-24T16:39:44;15.50;98.60
53695;DHT22;39588;51.124;7.190;2022-10-24T16:42:10;15.40;98.80
53695;DHT22;39588;51.124;7.190;2022-10-24T16:47:03;15.30;98.90
53695;DHT22;39588;51.124;7.190;2022-10-24T16:49:29;15.30;98.90
53695;DHT22;39588;51.124;7.190;2022-10-24T16:54:22;15.20;98.90
53695;DHT22;39588;51.124;7.190;2022-10-24T16:56:48;15.30;99.00
53695;DHT22;39588;51.124;7.190;2022-10-24T16:59:15;15.30;98.90
53695;DHT22;39588;51.124;7.190;2022-10-24T17:01:41;15.30;98.90
53695;DHT22;39588;51.124;7.190;2022-10-24T17:04:07;15.30;99.00
53695;DHT22;39588;51.124;7.190;2022-10-24T17:06:33;15.30;98.90
53695;DHT22;39588;51.124;7.190;2022-10-24T17:08:59;15.30;98.90
53695;DHT22;39588;51.124;7.190;2022-10-24T17:11:25;15.40;98.90
53695;DHT22;39588;51.124;7.190;2022-10-24T17:21:09;15.50;98.70
53695;DHT22;39588;51.124;7.190;2022-10-24T17:26:01;15.50;98.70
53695;DHT22;39588;51.124;7.190;2022-10-24T17:35:49;15.50;98.70
53695;DHT22;39588;51.124;7.190;2022-10-24T17:41:17;15.40;98.60
53695;DHT22;39588;51.124;7.190;2022-10-24T17:43:45;15.40;98.70
53695;DHT22;39588;51.124;7.190;2022-10-24T17:46:11;15.30;98.70
53695;DHT22;39588;51.124;7.190;2022-10-24T17:48:38;15.10;98.70
53695;DHT22;39588;51.124;7.190;2022-10-24T17:53:30;15.00;99.10
53695;DHT22;39588;51.124;7.190;2022-10-24T17:58:21;14.90;99.20
53695;DHT22;39588;51.124;7.190;2022-10-24T18:00:47;15.00;99.20
53695;DHT22;39588;51.124;7.190;2022-10-24T18:03:13;15.10;99.30
53695;DHT22;39588;51.124;7.190;2022-10-24T18:05:39;15.10;99.30
53695;DHT22;39588;51.124;7.190;2022-10-24T18:08:07;15.10;99.20
53695;DHT22;39588;51.124;7.190;2022-10-24T18:10:34;15.20;99.30
53695;DHT22;39588;51.124;7.190;2022-10-24T18:13:00;15.20;99.20
53695;DHT22;39588;51.124;7.190;2022-10-24T18:15:26;15.20;99.20
53695;DHT22;39588;51.124;7.190;2022-10-24T18:20:18;15.20;99.30
53695;DHT22;39588;51.124;7.190;2022-10-24T18:22:44;15.20;99.30
53695;DHT22;39588;51.124;7.190;2022-10-24T18:25:12;15.10;99.30
53695;DHT22;39588;51.124;7.190;2022-10-24T18:27:38;15.10;99.30
53695;DHT22;39588;51.124;7.190;2022-10-24T18:30:06;15.00;99.30
53695;DHT22;39588;51.124;7.190;2022-10-24T18:32:32;14.90;99.50
53695;DHT22;39588;51.124;7.190;2022-10-24T18:34:58;14.90;99.50
53695;DHT22;39588;51.124;7.190;2022-10-24T18:37:23;15.00;99.60
53695;DHT22;39588;51.124;7.190;2022-10-24T18:39:49;15.00;99.60
53695;DHT22;39588;51.124;7.190;2022-10-24T18:44:44;15.10;99.40
53695;DHT22;39588;51.124;7.190;2022-10-24T18:47:15;15.10;99.50
53695;DHT22;39588;51.124;7.190;2022-10-24T18:54:36;15.10;99.50
53695;DHT22;39588;51.124;7.190;2022-10-24T18:57:02;15.00;99.60
53695;DHT22;39588;51.124;7.190;2022-10-24T18:59:34;14.90;99.60
53695;DHT22;39588;51.124;7.190;2022-10-24T19:04:47;14.90;99.70
53695;DHT22;39588;51.124;7.190;2022-10-24T19:07:16;14.90;99.70
53695;DHT22;39588;51.124;7.190;2022-10-24T19:09:43;14.80;99.70
53695;DHT22;39588;51.124;7.190;2022-10-24T19:12:09;14.90;99.80
53695;DHT22;39588;51.124;7.190;2022-10-24T19:14:35;14.90;99.70
53695;DHT22;39588;51.124;7.190;2022-10-24T19:17:01;14.90;99.80
53695;DHT22;39588;51.124;7.190;2022-10-24T19:19:31;15.00;99.80
53695;DHT22;39588;51.124;7.190;2022-10-24T19:21:59;15.00;99.80
53695;DHT22;39588;51.124;7.190;2022-10-24T19:24:24;15.00;99.70
53695;DHT22;39588;51.124;7.190;2022-10-24T19:34:09;15.10;99.70
53695;DHT22;39588;51.124;7.190;2022-10-24T19:36:35;15.10;99.70
53695;DHT22;39588;51.124;7.190;2022-10-24T19:39:02;15.20;99.70
53695;DHT22;39588;51.124;7.190;2022-10-24T19:41:28;15.10;99.60
53695;DHT22;39588;51.124;7.190;2022-10-24T19:43:53;15.10;99.70
53695;DHT22;39588;51.124;7.190;2022-10-24T19:46:19;15.10;99.70
53695;DHT22;39588;51.124;7.190;2022-10-24T19:48:45;15.00;99.70
53695;DHT22;39588;51.124;7.190;2022-10-24T19:51:14;14.90;99.80
53695;DHT22;39588;51.124;7.190;2022-10-24T19:53:41;15.10;99.90
53695;DHT22;39588;51.124;7.190;2022-10-24T19:56:16;14.90;99.90
53695;DHT22;39588;51.124;7.190;2022-10-24T19:58:42;15.00;99.90
53695;DHT22;39588;51.124;7.190;2022-10-24T20:01:10;15.00;99.90
53695;DHT22;39588;51.124;7.190;2022-10-24T20:03:44;15.00;99.90
53695;DHT22;39588;51.124;7.190;2022-10-24T20:11:03;14.80;99.90
53695;DHT22;39588;51.124;7.190;2022-10-24T20:13:29;14.80;99.90
53695;DHT22;39588;51.124;7.190;2022-10-24T20:15:58;14.80;99.90
53695;DHT22;39588;51.124;7.190;2022-10-24T20:18:25;14.80;99.90
53695;DHT22;39588;51.124;7.190;2022-10-24T20:20:51;14.70;99.90
53695;DHT22;39588;51.124;7.190;2022-10-24T20:23:18;14.70;99.90
53695;DHT22;39588;51.124;7.190;2022-10-24T20:25:47;14.80;99.90
53695;DHT22;39588;51.124;7.190;2022-10-24T20:28:12;14.80;99.90
53695;DHT22;39588;51.124;7.190;2022-10-24T20:30:40;14.90;99.90
53695;DHT22;39588;51.124;7.190;2022-10-24T20:57:27;14.70;99.90
53695;DHT22;39588;51.124;7.190;2022-10-24T20:59:53;14.80;99.90
53695;DHT22;39588;51.124;7.190;2022-10-24T21:02:19;14.80;99.90
53695;DHT22;39588;51.124;7.190;2022-10-24T21:04:44;14.80;99.90
53695;DHT22;39588;51.124;7.190;2022-10-24T21:07:11;14.80;99.90
53695;DHT22;39588;51.124;7.190;2022-10-24T21:09:37;14.80;99.90
53695;DHT22;39588;51.124;7.190;2022-10-24T21:12:04;14.90;99.90
53695;DHT22;39588;51.124;7.190;2022-10-24T21:24:17;15.00;99.90
53695;DHT22;39588;51.124;7.190;2022-10-24T21:31:35;15.00;99.90
53695;DHT22;39588;51.124;7.190;2022-10-24T21:34:01;15.00;99.90
53695;DHT22;39588;51.124;7.190;2022-10-24T21:38:55;15.00;99.90
53695;DHT22;39588;51.124;7.190;2022-10-24T21:41:22;14.90;99.90
53695;DHT22;39588;51.124;7.190;2022-10-24T21:43:49;14.80;99.90
53695;DHT22;39588;51.124;7.190;2022-10-24T21:46:19;14.80;99.90
53695;DHT22;39588;51.124;7.190;2022-10-24T21:48:47;14.80;99.90
53695;DHT22;39588;51.124;7.190;2022-10-24T21:51:18;14.70;99.90
53695;DHT22;39588;51.124;7.190;2022-10-24T21:53:46;14.70;99.90
53695;DHT22;39588;51.124;7.190;2022-10-24T21:56:15;14.70;99.90
53695;DHT22;39588;51.124;7.190;2022-10-24T21:58:44;14.50;99.90
53695;DHT22;39588;51.124;7.190;2022-10-24T22:01:12;14.40;99.90
53695;DHT22;39588;51.124;7.190;2022-10-24T22:03:40;14.20;99.90
53695;DHT22;39588;51.124;7.190;2022-10-24T22:10:59;14.20;99.90
53695;DHT22;39588;51.124;7.190;2022-10-24T22:13:26;14.20;99.90
53695;DHT22;39588;51.124;7.190;2022-10-24T22:15:53;14.30;99.90
53695;DHT22;39588;51.124;7.190;2022-10-24T22:18:19;14.30;99.90
53695;DHT22;39588;51.124;7.190;2022-10-24T22:20:45;14.30;99.90
53695;DHT22;39588;51.124;7.190;2022-10-24T22:23:10;14.30;99.90
53695;DHT22;39588;51.124;7.190;2022-10-24T22:37:47;14.10;99.90
53695;DHT22;39588;51.124;7.190;2022-10-24T22:42:49;14.00;99.90
53695;DHT22;39588;51.124;7.190;2022-10-24T22:45:15;14.10;99.90
53695;DHT22;39588;51.124;7.190;2022-10-24T22:48:11;14.00;99.90
53695;DHT22;39588;51.124;7.190;2022-10-24T22:50:48;14.10;99.90
53695;DHT22;39588;51.124;7.190;2022-10-24T22:53:17;14.00;99.90
53695;DHT22;39588;51.124;7.190;2022-10-24T22:58:19;14.10;99.90
53695;DHT22;39588;51.124;7.190;2022-10-24T23:00:53;14.10;99.90
53695;DHT22;39588;51.124;7.190;2022-10-24T23:06:19;14.10;99.90
53695;DHT22;39588;51.124;7.190;2022-10-24T23:08:45;14.10;99.90
53695;DHT22;39588;51.124;7.190;2022-10-24T23:11:12;14.10;99.90
53695;DHT22;39588;51.124;7.190;2022-10-24T23:13:40;14.20;99.90
53695;DHT22;39588;51.124;7.190;2022-10-24T23:16:38;14.10;99.90
53695;DHT22;39588;51.124;7.190;2022-10-24T23:19:21;14.10;99.90
53695;DHT22;39588;51.124;7.190;2022-10-24T23:24:18;14.10;99.90
53695;DHT22;39588;51.124;7.190;2022-10-24T23:29:30;14.10;99.90
53695;DHT22;39588;51.124;7.190;2022-10-24T23:36:49;14.10;99.90